Time;durP1;ratioP1;P1;durP2;ratioP2;P2;SDS_P1;SDS_P2;PMS_P1;PMS_P2;Temp;Humidity;BMP_temperature;BMP_pressure;BME280_temperature;BME280_humidity;BME280_pressure;Samples;Min_cycle;Max_cycle;Signal;HPM_P1;HPM_P2
2021/09/10 00:00:48;;;;;;;12.70;9.73;;;21.10;99.90;;;;;;5015849;28;20249;-76
2021/09/10 00:03:14;;;;;;;12.50;9.90;;;21.10;99.90;;;;;;4999277;28;20183;-76
2021/09/10 00:05:39;;;;;;;14.00;9.80;;;21.00;99.90;;;;;;5015576;28;20245;-76
2021/09/10 00:08:05;;;;;;;16.50;9.40;;;21.00;99.90;;;;;;4999210;28;20179;-76
2021/09/10 00:10:31;;;;;;;11.43;9.73;;;21.00;99.90;;;;;;4999106;28;20567;-76
2021/09/10 00:12:57;;;;;;;14.33;9.87;;;21.00;99.90;;;;;;5015652;28;20167;-76
2021/09/10 00:15:23;;;;;;;12.63;10.17;;;21.00;99.90;;;;;;5015261;28;20270;-76
2021/09/10 00:17:48;;;;;;;11.57;8.97;;;21.00;99.90;;;;;;4999268;28;20232;-76
2021/09/10 00:20:14;;;;;;;10.37;9.23;;;20.90;99.90;;;;;;5015427;28;20704;-76
2021/09/10 00:22:39;;;;;;;13.43;9.40;;;20.90;99.90;;;;;;4998912;28;20646;-76
2021/09/10 00:25:05;;;;;;;12.63;9.90;;;20.90;99.90;;;;;;4998944;28;20209;-76
2021/09/10 00:27:31;;;;;;;11.80;9.63;;;20.90;99.90;;;;;;4998710;28;20203;-76
2021/09/10 00:29:56;;;;;;;13.77;9.67;;;20.90;99.90;;;;;;5015200;28;20183;-76
2021/09/10 00:32:22;;;;;;;12.30;9.80;;;21.10;99.90;;;;;;5032808;28;20693;-76
2021/09/10 00:34:47;;;;;;;13.00;10.63;;;21.00;99.90;;;;;;5020447;28;20681;-76
2021/09/10 00:37:13;;;;;;;10.57;9.33;;;21.00;99.90;;;;;;4995311;28;20203;-76
2021/09/10 00:39:38;;;;;;;9.87;8.87;;;20.90;99.90;;;;;;4978568;28;20678;-76
2021/09/10 00:42:04;;;;;;;13.27;9.90;;;20.90;99.90;;;;;;4979259;28;20697;-76
2021/09/10 00:44:30;;;;;;;14.07;10.10;;;20.80;99.90;;;;;;4979178;28;20753;-76
2021/09/10 00:46:56;;;;;;;12.63;9.80;;;20.80;99.90;;;;;;4979222;28;20191;-76
2021/09/10 00:49:21;;;;;;;10.90;9.03;;;20.80;99.90;;;;;;4979066;28;20167;-76
2021/09/10 00:51:47;;;;;;;11.77;9.53;;;20.70;99.90;;;;;;4978885;28;20615;-76
2021/09/10 00:54:12;;;;;;;13.23;9.77;;;20.70;99.90;;;;;;4979318;28;20603;-76
2021/09/10 00:56:38;;;;;;;11.47;9.87;;;20.70;99.90;;;;;;4995087;28;20199;-76
2021/09/10 00:59:05;;;;;;;15.10;11.07;;;20.70;99.90;;;;;;4995102;28;20218;-76
2021/09/10 01:01:31;;;;;;;11.90;9.60;;;20.70;99.90;;;;;;4979101;28;20266;-76
2021/09/10 01:03:56;;;;;;;14.80;10.73;;;20.70;99.90;;;;;;4962668;28;20253;-76
2021/09/10 01:06:22;;;;;;;13.27;9.67;;;20.70;99.90;;;;;;4978525;28;20211;-76
2021/09/10 01:08:48;;;;;;;13.40;10.70;;;20.70;99.90;;;;;;4978788;28;20172;-76
2021/09/10 01:11:14;;;;;;;14.10;10.53;;;20.70;99.90;;;;;;4978786;28;20254;-76
2021/09/10 01:13:40;;;;;;;14.83;10.53;;;20.70;99.90;;;;;;4978805;28;20179;-76
2021/09/10 01:16:06;;;;;;;14.23;10.83;;;20.70;99.90;;;;;;4962857;28;20199;-76
2021/09/10 01:18:31;;;;;;;14.43;10.57;;;20.70;99.90;;;;;;4962574;28;20655;-76
2021/09/10 01:20:57;;;;;;;13.70;10.90;;;20.70;99.90;;;;;;4994794;28;20191;-76
2021/09/10 01:23:22;;;;;;;12.57;10.10;;;20.70;99.90;;;;;;4962358;28;20554;-76
2021/09/10 01:25:48;;;;;;;15.17;10.80;;;20.70;99.90;;;;;;4995228;28;20226;-76
2021/09/10 01:28:15;;;;;;;13.97;10.70;;;20.70;99.90;;;;;;4962581;28;20171;-76
2021/09/10 01:30:40;;;;;;;13.40;10.27;;;20.70;99.90;;;;;;4978959;28;20179;-76
2021/09/10 01:33:07;;;;;;;11.93;9.70;;;20.70;99.90;;;;;;4994666;28;20571;-76
2021/09/10 01:35:33;;;;;;;13.87;9.47;;;20.70;99.90;;;;;;4994648;28;20176;-76
2021/09/10 01:37:58;;;;;;;13.13;10.00;;;20.60;99.90;;;;;;4994717;28;20185;-76
2021/09/10 01:40:24;;;;;;;13.03;9.77;;;20.70;99.90;;;;;;4994493;28;20179;-76
2021/09/10 01:42:50;;;;;;;12.30;9.63;;;20.60;99.90;;;;;;4978324;28;20199;-76
2021/09/10 01:45:16;;;;;;;11.00;9.67;;;20.60;99.90;;;;;;4994632;28;20198;-76
2021/09/10 01:47:41;;;;;;;12.07;9.10;;;20.60;99.90;;;;;;4978141;28;20202;-76
2021/09/10 01:50:09;;;;;;;11.50;9.07;;;20.60;99.90;;;;;;4994371;28;20203;-76
2021/09/10 01:52:35;;;;;;;11.77;9.03;;;20.60;99.90;;;;;;4997192;28;20262;-76
2021/09/10 01:55:00;;;;;;;10.73;8.67;;;20.60;99.90;;;;;;4998559;28;20625;-76
2021/09/10 01:57:26;;;;;;;10.37;8.93;;;20.60;99.90;;;;;;5016129;28;20200;-76
2021/09/10 01:59:51;;;;;;;14.57;8.77;;;20.60;99.90;;;;;;4998488;28;20262;-76
2021/09/10 02:02:18;;;;;;;13.20;8.63;;;20.60;99.90;;;;;;4998357;28;20662;-76
2021/09/10 02:04:43;;;;;;;11.07;9.00;;;20.60;99.90;;;;;;4998439;28;20576;-76
2021/09/10 02:07:09;;;;;;;11.07;9.00;;;20.60;99.90;;;;;;4982013;28;20211;-76
2021/09/10 02:09:35;;;;;;;11.07;8.33;;;20.60;99.90;;;;;;4981882;28;20171;-76
2021/09/10 02:12:02;;;;;;;11.90;9.07;;;20.60;99.90;;;;;;4998386;28;20264;-76
2021/09/10 02:14:27;;;;;;;10.57;9.00;;;20.60;99.90;;;;;;4998219;28;20202;-76
2021/09/10 02:16:53;;;;;;;11.37;8.33;;;20.60;99.90;;;;;;4998149;28;20679;-76
2021/09/10 02:19:19;;;;;;;11.13;8.60;;;20.60;99.90;;;;;;4981715;28;20189;-76
2021/09/10 02:21:44;;;;;;;9.97;8.40;;;20.50;99.90;;;;;;4998064;28;20180;-76
2021/09/10 02:24:10;;;;;;;10.83;9.07;;;20.50;99.90;;;;;;4981742;28;20302;-76
2021/09/10 02:26:35;;;;;;;10.57;8.93;;;20.40;99.90;;;;;;4998047;28;20223;-76
2021/09/10 02:29:01;;;;;;;13.43;9.00;;;20.40;99.90;;;;;;4981549;28;20176;-76
2021/09/10 02:31:27;;;;;;;10.60;8.63;;;20.30;99.90;;;;;;5015435;28;20238;-76
2021/09/10 02:33:52;;;;;;;14.97;9.27;;;20.30;99.90;;;;;;4981621;28;20673;-76
2021/09/10 02:36:18;;;;;;;12.03;9.53;;;20.30;99.90;;;;;;4997688;28;20211;-76
2021/09/10 02:38:43;;;;;;;10.27;8.47;;;20.30;99.90;;;;;;4997745;28;20183;-76
2021/09/10 02:41:09;;;;;;;11.57;8.80;;;20.20;99.90;;;;;;4997725;28;20184;-76
2021/09/10 02:43:34;;;;;;;11.77;8.50;;;20.20;99.90;;;;;;4997959;28;20207;-76
2021/09/10 02:46:00;;;;;;;11.50;9.37;;;20.30;99.90;;;;;;4997632;28;20616;-76
2021/09/10 02:48:25;;;;;;;11.33;8.90;;;20.20;99.90;;;;;;4997627;28;20175;-76
2021/09/10 02:50:51;;;;;;;11.20;9.30;;;20.20;99.90;;;;;;4981323;28;20179;-76
2021/09/10 02:53:16;;;;;;;9.50;8.20;;;20.20;99.90;;;;;;4997292;28;20180;-76
2021/09/10 02:55:42;;;;;;;12.60;9.20;;;20.20;99.90;;;;;;4981207;28;20207;-76
2021/09/10 02:58:07;;;;;;;11.80;9.30;;;20.20;99.90;;;;;;5015435;28;20662;-76
2021/09/10 03:00:33;;;;;;;11.70;9.47;;;20.20;99.90;;;;;;4980818;28;20666;-76
2021/09/10 03:02:59;;;;;;;12.13;9.60;;;20.20;99.90;;;;;;5014973;28;20643;-76
2021/09/10 03:05:24;;;;;;;10.37;8.97;;;20.20;99.90;;;;;;4997602;28;20215;-76
2021/09/10 03:07:51;;;;;;;10.90;9.03;;;20.20;99.90;;;;;;4998038;28;20178;-76
2021/09/10 03:10:16;;;;;;;13.50;10.20;;;20.20;99.90;;;;;;4997496;28;20183;-76
2021/09/10 03:12:42;;;;;;;11.47;9.60;;;20.20;99.90;;;;;;4981619;28;20233;-76
2021/09/10 03:15:10;;;;;;;10.90;8.90;;;20.20;99.90;;;;;;4981613;28;20179;-76
2021/09/10 03:17:35;;;;;;;9.90;8.83;;;20.20;99.90;;;;;;4981390;28;20205;-76
2021/09/10 03:20:01;;;;;;;11.90;8.83;;;20.20;99.90;;;;;;4997517;28;20559;-76
2021/09/10 03:22:26;;;;;;;11.90;9.50;;;20.20;99.90;;;;;;4981686;28;20616;-77
2021/09/10 03:24:53;;;;;;;11.37;8.77;;;20.20;99.90;;;;;;4981292;28;20701;-76
2021/09/10 03:27:19;;;;;;;11.77;8.67;;;20.10;99.90;;;;;;4981226;28;20246;-76
2021/09/10 03:29:44;;;;;;;11.23;8.43;;;20.10;99.90;;;;;;4980927;28;20230;-76
2021/09/10 03:32:10;;;;;;;11.83;9.03;;;20.10;99.90;;;;;;4997437;28;20171;-76
2021/09/10 03:34:35;;;;;;;10.53;8.70;;;20.10;99.90;;;;;;4997216;28;20222;-76
2021/09/10 03:37:01;;;;;;;11.10;8.80;;;20.00;99.90;;;;;;4997163;28;20203;-76
2021/09/10 03:39:26;;;;;;;10.30;8.73;;;20.00;99.90;;;;;;4997011;28;20183;-76
2021/09/10 03:41:52;;;;;;;10.43;8.43;;;20.00;99.90;;;;;;4997011;28;20526;-76
2021/09/10 03:44:18;;;;;;;11.17;9.13;;;20.00;99.90;;;;;;4980684;28;20199;-76
2021/09/10 03:46:43;;;;;;;10.67;9.07;;;20.00;99.90;;;;;;4997103;28;20245;-76
2021/09/10 03:49:09;;;;;;;10.60;8.90;;;20.00;99.90;;;;;;4980418;28;20215;-76
2021/09/10 03:51:34;;;;;;;11.47;9.50;;;20.00;99.90;;;;;;4997715;28;20187;-76
2021/09/10 03:54:00;;;;;;;14.43;9.07;;;20.10;99.90;;;;;;4980976;28;20195;-76
2021/09/10 03:56:25;;;;;;;10.50;8.60;;;20.10;99.90;;;;;;4997218;28;20203;-77
2021/09/10 03:58:51;;;;;;;10.70;8.50;;;20.00;99.90;;;;;;4996942;28;20190;-76
2021/09/10 04:01:17;;;;;;;12.90;9.70;;;20.00;99.90;;;;;;4976711;28;20679;-76
2021/09/10 04:03:43;;;;;;;11.80;10.33;;;20.00;99.90;;;;;;4977807;28;20192;-76
2021/09/10 04:06:09;;;;;;;11.47;9.20;;;20.00;99.90;;;;;;4977039;28;20234;-76
2021/09/10 04:08:35;;;;;;;14.07;9.97;;;19.90;99.90;;;;;;4961366;28;20180;-76
2021/09/10 04:11:01;;;;;;;13.20;9.27;;;19.90;99.90;;;;;;4961224;28;20184;-75
2021/09/10 04:13:26;;;;;;;11.37;9.50;;;19.90;99.90;;;;;;4960880;28;20177;-75
2021/09/10 04:15:52;;;;;;;11.03;9.60;;;19.90;99.90;;;;;;4976779;28;20200;-75
2021/09/10 04:18:17;;;;;;;11.37;10.27;;;19.80;99.90;;;;;;4977060;28;20180;-75
2021/09/10 04:20:43;;;;;;;13.60;9.97;;;19.80;99.90;;;;;;4977270;28;20636;-75
2021/09/10 04:23:08;;;;;;;10.70;9.10;;;19.80;99.90;;;;;;4961056;28;20183;-75
2021/09/10 04:25:34;;;;;;;12.03;9.73;;;19.70;99.90;;;;;;4977091;28;20560;-75
2021/09/10 04:27:59;;;;;;;13.57;10.27;;;19.70;99.90;;;;;;4961197;28;20184;-75
2021/09/10 04:30:25;;;;;;;12.63;9.40;;;19.70;99.90;;;;;;4960446;28;20176;-75
2021/09/10 04:32:50;;;;;;;11.63;9.40;;;19.60;99.90;;;;;;4976773;28;20271;-75
2021/09/10 04:35:16;;;;;;;12.23;9.50;;;19.60;99.90;;;;;;4976709;28;20279;-75
2021/09/10 04:37:41;;;;;;;12.13;10.50;;;19.60;99.90;;;;;;4960643;28;20196;-75
2021/09/10 04:40:08;;;;;;;13.33;9.57;;;19.50;99.90;;;;;;4976896;28;20180;-75
2021/09/10 04:42:34;;;;;;;15.10;10.13;;;19.50;99.90;;;;;;4976808;28;20267;-75
2021/09/10 04:44:59;;;;;;;13.20;10.37;;;19.50;99.90;;;;;;4961210;28;20315;-75
2021/09/10 04:47:26;;;;;;;13.67;10.33;;;19.40;99.90;;;;;;4986368;28;20199;-75
2021/09/10 04:49:52;;;;;;;11.70;9.60;;;19.40;99.90;;;;;;4981759;28;20266;-75
2021/09/10 04:52:17;;;;;;;15.00;10.83;;;19.50;99.90;;;;;;4976379;28;20679;-75
2021/09/10 04:54:43;;;;;;;14.60;10.63;;;19.50;99.90;;;;;;4990147;28;20187;-74
2021/09/10 04:57:08;;;;;;;14.63;11.00;;;19.50;99.90;;;;;;4979742;28;20211;-74
2021/09/10 04:59:34;;;;;;;13.90;11.13;;;19.50;99.90;;;;;;4979019;28;20764;-74
2021/09/10 05:02:00;;;;;;;15.53;11.10;;;19.50;99.90;;;;;;4978822;28;20542;-74
2021/09/10 05:04:25;;;;;;;13.03;11.53;;;19.50;99.90;;;;;;4978961;28;20207;-74
2021/09/10 05:06:51;;;;;;;14.03;10.73;;;19.50;99.90;;;;;;4978894;28;20217;-74
2021/09/10 05:09:17;;;;;;;16.10;11.70;;;19.40;99.90;;;;;;4978803;28;20182;-74
2021/09/10 05:11:42;;;;;;;15.47;11.07;;;19.30;99.90;;;;;;4981798;28;20574;-74
2021/09/10 05:14:09;;;;;;;15.00;11.37;;;19.30;99.90;;;;;;5014430;28;20183;-74
2021/09/10 05:16:35;;;;;;;14.60;11.33;;;19.40;99.90;;;;;;4998740;28;20206;-74
2021/09/10 05:19:01;;;;;;;14.17;11.10;;;19.30;99.90;;;;;;5014514;28;20183;-74
2021/09/10 05:21:27;;;;;;;13.27;10.33;;;19.30;99.90;;;;;;4999077;28;20205;-71
2021/09/10 05:23:53;;;;;;;13.07;10.97;;;19.40;99.90;;;;;;4983626;28;20694;-70
2021/09/10 05:26:18;;;;;;;15.00;10.90;;;19.40;99.90;;;;;;4983644;28;20195;-70
2021/09/10 05:28:45;;;;;;;14.70;10.83;;;19.40;99.90;;;;;;4983043;28;20182;-74
2021/09/10 05:31:11;;;;;;;13.73;10.77;;;19.40;99.90;;;;;;4997046;28;20204;-74
2021/09/10 05:33:36;;;;;;;13.00;10.90;;;19.40;99.90;;;;;;4979689;28;20187;-74
2021/09/10 05:36:02;;;;;;;13.63;10.60;;;19.40;99.90;;;;;;4978997;28;20238;-74
2021/09/10 05:38:28;;;;;;;13.30;10.83;;;19.40;99.90;;;;;;4991363;28;20192;-74
2021/09/10 05:40:53;;;;;;;14.73;11.20;;;19.40;99.90;;;;;;4994474;28;20237;-74
2021/09/10 05:43:19;;;;;;;14.20;10.57;;;19.50;99.90;;;;;;5011960;28;20195;-75
2021/09/10 05:45:44;;;;;;;12.40;10.20;;;19.50;99.90;;;;;;4978048;28;20297;-75
2021/09/10 05:48:10;;;;;;;13.40;10.37;;;19.50;99.90;;;;;;4994863;28;20176;-77
2021/09/10 05:50:35;;;;;;;11.43;10.33;;;19.50;99.90;;;;;;4994494;28;20182;-74
2021/09/10 05:53:01;;;;;;;13.47;10.83;;;19.60;99.90;;;;;;4994560;28;20203;-74
2021/09/10 05:55:27;;;;;;;13.70;10.10;;;19.70;99.90;;;;;;4994472;28;20187;-74
2021/09/10 05:57:52;;;;;;;13.23;10.43;;;19.70;99.90;;;;;;5010924;28;20257;-74
2021/09/10 06:00:18;;;;;;;14.07;10.37;;;19.90;99.90;;;;;;4994402;28;20191;-74
2021/09/10 06:02:43;;;;;;;14.63;10.00;;;20.00;99.90;;;;;;5014323;28;20184;-74
2021/09/10 06:05:09;;;;;;;12.77;10.50;;;20.10;99.90;;;;;;5005043;28;20226;-75
2021/09/10 06:07:35;;;;;;;12.67;9.80;;;20.20;99.90;;;;;;5012174;28;20207;-74
2021/09/10 06:10:00;;;;;;;11.87;9.40;;;20.40;99.90;;;;;;4994557;28;20177;-72
2021/09/10 06:12:26;;;;;;;11.40;9.27;;;20.50;99.90;;;;;;5012609;28;20228;-71
2021/09/10 06:14:51;;;;;;;10.90;9.00;;;20.70;99.90;;;;;;4994627;28;20259;-71
2021/09/10 06:17:17;;;;;;;11.73;9.53;;;20.90;99.90;;;;;;4978318;28;20210;-76
2021/09/10 06:19:43;;;;;;;10.73;9.03;;;21.10;99.90;;;;;;4962345;28;20180;-77
2021/09/10 06:22:10;;;;;;;10.93;9.83;;;21.10;99.90;;;;;;5012754;28;20214;-76
2021/09/10 06:24:36;;;;;;;14.60;9.33;;;21.00;99.90;;;;;;4978866;28;20215;-80
2021/09/10 06:27:01;;;;;;;12.13;9.10;;;20.80;99.90;;;;;;4977932;28;20738;-77
2021/09/10 06:29:27;;;;;;;10.73;8.80;;;20.60;99.90;;;;;;5010895;28;20179;-76
2021/09/10 06:31:52;;;;;;;10.30;8.90;;;20.50;99.90;;;;;;4997408;28;20654;-77
2021/09/10 06:34:21;;;;;;;12.27;9.17;;;20.40;99.90;;;;;;4991861;28;20183;-77
2021/09/10 06:36:48;;;;;;;10.60;8.80;;;20.30;99.90;;;;;;4999784;28;20203;-75
2021/09/10 06:39:14;;;;;;;9.80;8.53;;;20.30;99.90;;;;;;4981477;28;20309;-75
2021/09/10 06:41:39;;;;;;;10.97;9.40;;;20.30;99.90;;;;;;4997738;28;20184;-74
2021/09/10 06:44:05;;;;;;;12.20;8.73;;;20.30;99.90;;;;;;4965607;28;20207;-74
2021/09/10 06:46:31;;;;;;;10.80;8.27;;;20.30;99.90;;;;;;4981832;28;20418;-74
2021/09/10 06:48:56;;;;;;;9.97;8.13;;;20.30;99.90;;;;;;4982369;28;20297;-74
2021/09/10 06:51:22;;;;;;;9.30;8.30;;;20.30;99.90;;;;;;4999691;28;20233;-74
2021/09/10 06:53:47;;;;;;;10.17;7.83;;;20.20;99.90;;;;;;4998481;28;20179;-75
2021/09/10 06:56:13;;;;;;;11.70;8.30;;;20.20;99.90;;;;;;4967469;28;20267;-75
2021/09/10 06:58:44;;;;;;;9.40;8.23;;;20.30;99.90;;;;;;4970945;28;20183;-76
2021/09/10 07:01:13;;;;;;;11.13;8.70;;;20.30;99.90;;;;;;5002247;28;20185;-78
2021/09/10 07:03:40;;;;;;;10.23;8.50;;;20.60;99.90;;;;;;4987609;28;20183;-76
2021/09/10 07:06:06;;;;;;;8.77;7.87;;;21.40;99.90;;;;;;4986270;28;20233;-75
2021/09/10 07:08:32;;;;;;;7.73;6.93;;;22.20;99.90;;;;;;4983158;28;20175;-76
2021/09/10 07:11:01;;;;;;;7.87;6.97;;;22.60;99.90;;;;;;4982996;28;20184;-76
2021/09/10 07:13:26;;;;;;;7.87;6.80;;;22.80;99.90;;;;;;4984513;28;20200;-76
2021/09/10 07:15:52;;;;;;;10.93;7.07;;;22.70;99.90;;;;;;4965389;28;20215;-75
2021/09/10 07:18:20;;;;;;;8.63;6.07;;;22.70;99.90;;;;;;4948399;28;20184;-78
2021/09/10 07:20:45;;;;;;;7.53;6.67;;;22.60;99.90;;;;;;4966368;28;20186;-75
2021/09/10 07:23:11;;;;;;;10.37;7.10;;;22.50;99.90;;;;;;4964799;28;20631;-74
2021/09/10 07:25:37;;;;;;;7.93;6.50;;;22.30;99.90;;;;;;4964904;28;20212;-74
2021/09/10 07:28:02;;;;;;;7.60;6.47;;;22.20;99.90;;;;;;4981462;28;20214;-74
2021/09/10 07:30:28;;;;;;;8.73;6.70;;;22.00;99.90;;;;;;4965079;28;20185;-74
2021/09/10 07:32:53;;;;;;;8.53;6.90;;;22.00;99.90;;;;;;4980555;28;20185;-75
2021/09/10 07:35:19;;;;;;;8.77;7.10;;;21.90;99.90;;;;;;4967674;28;20203;-74
2021/09/10 07:37:48;;;;;;;8.40;7.10;;;21.80;99.90;;;;;;4985200;28;20231;-75
2021/09/10 07:40:15;;;;;;;8.83;7.50;;;21.80;99.90;;;;;;4984506;28;20656;-74
2021/09/10 07:42:41;;;;;;;9.17;7.03;;;21.80;99.90;;;;;;4982930;28;20184;-76
2021/09/10 07:45:09;;;;;;;11.13;6.63;;;21.80;99.90;;;;;;4983206;28;20212;-75
2021/09/10 07:47:39;;;;;;;7.37;5.97;;;21.90;99.90;;;;;;4965687;28;20299;-74
2021/09/10 07:50:07;;;;;;;8.23;6.90;;;22.00;99.90;;;;;;4997071;28;20223;-74
2021/09/10 07:52:34;;;;;;;7.80;6.20;;;22.10;99.90;;;;;;4997382;28;20200;-73
2021/09/10 07:55:03;;;;;;;8.73;6.80;;;22.30;99.90;;;;;;5002926;28;20188;-73
2021/09/10 07:57:30;;;;;;;8.07;6.30;;;22.70;99.90;;;;;;4997914;28;20219;-73
2021/09/10 07:59:57;;;;;;;9.33;6.40;;;22.90;99.90;;;;;;5015605;28;20194;-73
2021/09/10 08:02:26;;;;;;;7.07;5.50;;;23.10;99.90;;;;;;5019009;28;20198;-73
2021/09/10 08:04:52;;;;;;;7.93;5.85;;;23.20;99.90;;;;;;4968020;28;20670;-73
2021/09/10 08:07:18;;;;;;;7.00;5.80;;;23.20;99.90;;;;;;4985370;28;20200;-73
2021/09/10 08:09:44;;;;;;;6.40;5.70;;;23.20;99.90;;;;;;5000038;28;20179;-73
2021/09/10 08:12:09;;;;;;;7.00;4.70;;;23.30;99.90;;;;;;5029135;28;20256;-73
2021/09/10 08:14:35;;;;;;;7.30;5.27;;;23.40;99.90;;;;;;5019912;28;20183;-73
2021/09/10 08:17:00;;;;;;;6.53;4.60;;;23.50;99.90;;;;;;5037061;28;20199;-73
2021/09/10 08:19:26;;;;;;;8.13;5.13;;;23.80;99.90;;;;;;5019092;28;20224;-73
2021/09/10 08:21:51;;;;;;;6.17;4.80;;;24.10;99.90;;;;;;5036951;28;20237;-73
2021/09/10 08:24:17;;;;;;;6.10;4.67;;;24.30;99.90;;;;;;5037341;28;20277;-73
2021/09/10 08:26:43;;;;;;;5.45;4.30;;;24.60;99.90;;;;;;5009978;28;20210;-73
2021/09/10 08:29:08;;;;;;;6.45;3.92;;;24.90;99.90;;;;;;4995469;28;20197;-73
2021/09/10 08:31:34;;;;;;;5.25;4.00;;;24.90;99.90;;;;;;5020298;28;20178;-73
2021/09/10 08:34:00;;;;;;;4.78;3.90;;;25.00;99.90;;;;;;5019686;28;20235;-73
2021/09/10 08:36:26;;;;;;;5.18;3.85;;;25.20;99.90;;;;;;5037114;28;20717;-73
2021/09/10 08:38:52;;;;;;;4.50;3.25;;;25.30;99.90;;;;;;5036284;28;20229;-73
2021/09/10 08:41:21;;;;;;;5.38;4.10;;;25.30;99.90;;;;;;5036453;28;20658;-73
2021/09/10 08:43:48;;;;;;;4.80;3.60;;;25.60;99.90;;;;;;5018280;28;20186;-73
2021/09/10 08:46:15;;;;;;;4.47;3.25;;;25.60;99.90;;;;;;5018532;28;20238;-73
2021/09/10 08:48:45;;;;;;;4.53;3.33;;;25.70;99.90;;;;;;5017848;28;20171;-73
2021/09/10 08:51:11;;;;;;;5.80;4.10;;;25.60;99.90;;;;;;5027334;28;20176;-73
2021/09/10 08:53:37;;;;;;;6.28;4.07;;;25.70;99.90;;;;;;5000341;28;20201;-73
2021/09/10 08:56:02;;;;;;;6.72;3.92;;;25.70;99.90;;;;;;4999383;28;20195;-73
2021/09/10 08:58:28;;;;;;;4.60;3.30;;;25.80;99.90;;;;;;5016627;28;20194;-73
2021/09/10 09:00:56;;;;;;;5.00;3.95;;;26.00;99.90;;;;;;5015422;28;20186;-73
2021/09/10 09:03:26;;;;;;;5.80;4.07;;;26.10;99.90;;;;;;4998210;28;20175;-73
2021/09/10 09:05:52;;;;;;;5.30;3.90;;;26.00;99.90;;;;;;4997351;28;20585;-73
2021/09/10 09:08:18;;;;;;;5.82;3.85;;;26.00;99.90;;;;;;4997744;28;20175;-73
2021/09/10 09:10:50;;;;;;;4.50;3.47;;;26.00;99.90;;;;;;4997460;28;20179;-73
2021/09/10 09:13:16;;;;;;;6.30;3.90;;;26.20;99.90;;;;;;5015523;28;20176;-73
2021/09/10 09:15:41;;;;;;;5.78;3.67;;;26.40;99.90;;;;;;5015527;28;20675;-73
2021/09/10 09:18:07;;;;;;;5.47;3.80;;;26.70;99.90;;;;;;5014917;28;20202;-73
2021/09/10 09:20:32;;;;;;;4.32;3.70;;;26.80;99.90;;;;;;5015030;28;20179;-73
2021/09/10 09:23:08;;;;;;;5.57;3.70;;;26.80;99.90;;;;;;5015051;28;20195;-73
2021/09/10 09:25:44;;;;;;;4.32;3.92;;;26.70;99.90;;;;;;4996898;28;20199;-73
2021/09/10 09:28:21;;;;;;;5.72;4.03;;;26.60;99.90;;;;;;4978692;28;20189;-73
2021/09/10 09:30:49;;;;;;;6.85;4.43;;;26.50;99.90;;;;;;5012279;28;20222;-73
2021/09/10 09:33:15;;;;;;;5.15;4.20;;;26.30;99.90;;;;;;4995016;28;20514;-73
2021/09/10 09:35:41;;;;;;;5.38;3.75;;;26.10;99.90;;;;;;4994977;28;20179;-73
2021/09/10 09:38:27;;;;;;;4.90;3.97;;;26.00;99.90;;;;;;4978955;28;20183;-73
2021/09/10 09:40:55;;;;;;;6.32;4.80;;;26.00;99.90;;;;;;5011978;28;20180;-73
2021/09/10 09:43:23;;;;;;;5.72;4.25;;;26.10;99.90;;;;;;4994743;28;20701;-74
2021/09/10 09:45:50;;;;;;;6.43;4.35;;;26.10;99.90;;;;;;4995222;28;20213;-73
2021/09/10 09:48:17;;;;;;;4.65;4.18;;;26.10;99.90;;;;;;4994764;28;20241;-73
2021/09/10 09:50:42;;;;;;;4.75;4.07;;;26.10;99.90;;;;;;4978495;28;20180;-73
2021/09/10 09:53:08;;;;;;;5.22;4.07;;;26.00;99.90;;;;;;4994618;28;20193;-73
2021/09/10 09:55:34;;;;;;;4.28;3.88;;;25.80;99.90;;;;;;4970752;28;20205;-73
2021/09/10 09:58:04;;;;;;;4.20;3.65;;;25.70;99.90;;;;;;4972015;28;20607;-73
2021/09/10 10:00:31;;;;;;;5.07;3.60;;;25.60;99.90;;;;;;4994392;28;20187;-74
2021/09/10 10:02:58;;;;;;;6.38;3.42;;;25.60;99.90;;;;;;4987072;28;20171;-73
2021/09/10 10:05:24;;;;;;;5.38;3.75;;;25.80;99.90;;;;;;4998370;28;20234;-72
2021/09/10 10:08:03;;;;;;;3.60;3.20;;;25.90;99.90;;;;;;4998326;28;20329;-72
2021/09/10 10:10:33;;;;;;;3.40;3.00;;;26.00;99.90;;;;;;4997304;28;20185;-72
2021/09/10 10:12:59;;;;;;;3.97;2.95;;;26.00;99.90;;;;;;5015413;28;20229;-72
2021/09/10 10:15:26;;;;;;;4.90;3.15;;;26.10;99.90;;;;;;5017800;28;20604;-72
2021/09/10 10:17:53;;;;;;;3.88;2.90;;;26.10;99.90;;;;;;5017787;28;20197;-72
2021/09/10 10:20:44;;;;;;;3.65;2.78;;;26.20;99.90;;;;;;5034994;28;20313;-72
2021/09/10 10:23:44;;;;;;;5.40;2.70;;;26.20;99.90;;;;;;5007418;28;20183;-73
2021/09/10 10:26:11;;;;;;;3.60;2.80;;;26.40;99.90;;;;;;5018742;28;20623;-73
2021/09/10 10:28:43;;;;;;;4.72;2.92;;;26.40;99.90;;;;;;5012776;28;20208;-72
2021/09/10 10:31:09;;;;;;;3.45;2.85;;;26.30;99.90;;;;;;4997895;28;20176;-73
2021/09/10 10:33:35;;;;;;;4.13;2.83;;;26.20;99.90;;;;;;4986840;28;20176;-73
2021/09/10 10:36:33;;;;;;;4.40;3.20;;;26.10;99.90;;;;;;4990677;28;20198;-72
2021/09/10 10:39:07;;;;;;;3.55;3.15;;;26.10;99.90;;;;;;4980146;28;20263;-73
2021/09/10 10:41:46;;;;;;;4.18;2.80;;;26.00;99.90;;;;;;5015400;28;20542;-73
2021/09/10 10:44:30;;;;;;;3.75;2.90;;;26.00;99.90;;;;;;4981964;28;20206;-73
2021/09/10 10:47:09;;;;;;;3.38;2.72;;;26.00;99.90;;;;;;5015360;28;20605;-73
2021/09/10 10:49:36;;;;;;;4.30;2.60;;;26.10;99.90;;;;;;4997812;28;20642;-73
2021/09/10 10:52:22;;;;;;;6.80;2.70;;;25.90;99.90;;;;;;5014934;28;20168;-73
2021/09/10 10:55:08;;;;;;;3.92;2.78;;;25.90;99.90;;;;;;4957493;28;20644;-74
2021/09/10 10:57:34;;;;;;;3.20;2.78;;;25.90;99.90;;;;;;4980438;28;20222;-74
2021/09/10 11:00:00;;;;;;;4.25;2.80;;;26.00;99.90;;;;;;4961588;28;20630;-74
2021/09/10 11:02:28;;;;;;;3.78;2.50;;;26.10;99.90;;;;;;4984733;28;20258;-74
2021/09/10 11:05:03;;;;;;;3.88;2.53;;;26.20;99.90;;;;;;5017230;28;20203;-73
2021/09/10 11:07:29;;;;;;;3.25;2.42;;;26.20;99.90;;;;;;5034214;28;20283;-74
2021/09/10 11:10:07;;;;;;;3.25;2.42;;;26.10;99.90;;;;;;5016544;28;20274;-73
2021/09/10 11:12:34;;;;;;;4.45;2.65;;;26.00;99.90;;;;;;5034867;28;20248;-73
2021/09/10 11:15:00;;;;;;;3.85;2.70;;;25.90;99.90;;;;;;5000186;28;20266;-74
2021/09/10 11:17:27;;;;;;;3.78;3.00;;;25.90;99.90;;;;;;5016626;28;20317;-74
2021/09/10 11:19:54;;;;;;;3.28;2.97;;;25.80;99.90;;;;;;5016603;28;20678;-73
2021/09/10 11:22:20;;;;;;;5.32;2.95;;;25.80;99.90;;;;;;4996635;28;20191;-73
2021/09/10 11:24:47;;;;;;;3.20;2.60;;;25.90;99.90;;;;;;4964002;28;20200;-73
2021/09/10 11:27:27;;;;;;;3.83;2.60;;;26.10;99.90;;;;;;4981154;28;20214;-73
2021/09/10 11:29:53;;;;;;;4.38;2.90;;;26.30;99.90;;;;;;4980590;28;20599;-73
2021/09/10 11:32:24;;;;;;;3.70;2.53;;;26.50;99.90;;;;;;4981335;28;20203;-78
2021/09/10 11:34:50;;;;;;;3.33;2.60;;;26.60;99.90;;;;;;4997708;28;20204;-77
2021/09/10 11:37:30;;;;;;;3.67;2.60;;;26.70;99.90;;;;;;4980657;28;20258;-77
2021/09/10 11:39:56;;;;;;;4.80;2.95;;;26.60;99.90;;;;;;4980478;28;20172;-77
2021/09/10 11:42:34;;;;;;;5.70;2.92;;;26.30;99.90;;;;;;4980666;28;20183;-77
2021/09/10 11:45:21;;;;;;;4.57;3.30;;;26.10;99.90;;;;;;4980258;28;20601;-77
2021/09/10 11:47:47;;;;;;;5.18;3.35;;;26.10;99.90;;;;;;4999038;28;20209;-79
2021/09/10 11:50:12;;;;;;;5.60;3.63;;;26.10;99.90;;;;;;4964253;28;20259;-76
2021/09/10 11:52:40;;;;;;;4.50;3.88;;;26.10;99.90;;;;;;4963983;28;20199;-77
2021/09/10 11:55:10;;;;;;;4.80;4.30;;;26.10;99.90;;;;;;4964027;28;20194;-76
2021/09/10 11:57:36;;;;;;;4.70;4.13;;;26.20;99.90;;;;;;4980362;28;20294;-78
2021/09/10 12:00:03;;;;;;;5.00;4.32;;;26.40;99.90;;;;;;4996378;28;20242;-77
2021/09/10 12:02:29;;;;;;;4.85;4.35;;;26.60;99.90;;;;;;4984026;28;20603;-78
2021/09/10 12:04:55;;;;;;;4.60;4.05;;;26.80;99.90;;;;;;5015712;28;20195;-79
2021/09/10 12:07:28;;;;;;;4.53;4.00;;;27.00;99.90;;;;;;5015453;28;20215;-77
2021/09/10 12:09:54;;;;;;;4.53;4.13;;;27.00;99.90;;;;;;5015858;28;20643;-77
2021/09/10 12:12:20;;;;;;;4.72;4.32;;;27.00;99.90;;;;;;4999265;28;20341;-77
2021/09/10 12:14:52;;;;;;;6.75;5.05;;;27.10;99.90;;;;;;5015648;28;20221;-77
2021/09/10 12:17:24;;;;;;;5.20;4.70;;;27.10;99.90;;;;;;5033266;28;20681;-77
2021/09/10 12:19:49;;;;;;;5.55;4.57;;;27.00;99.90;;;;;;5033056;28;20171;-77
2021/09/10 12:22:26;;;;;;;4.65;3.97;;;27.20;99.90;;;;;;5015421;28;20185;-78
2021/09/10 12:25:17;;;;;;;5.03;4.00;;;27.30;99.90;;;;;;4999075;28;20686;-77
2021/09/10 12:27:43;;;;;;;4.82;4.35;;;27.30;99.90;;;;;;4995611;28;20663;-78
2021/09/10 12:30:09;;;;;;;5.40;4.97;;;27.30;99.90;;;;;;4998736;28;20175;-78
2021/09/10 12:32:35;;;;;;;7.53;5.38;;;27.10;99.90;;;;;;4999155;28;20183;-79
2021/09/10 12:35:01;;;;;;;6.38;5.55;;;27.00;99.90;;;;;;5016758;28;20216;-79
2021/09/10 12:37:28;;;;;;;6.35;5.85;;;26.80;99.90;;;;;;5011091;28;20294;-79
2021/09/10 12:39:54;;;;;;;6.63;6.00;;;26.70;99.90;;;;;;4967590;28;20187;-81